createdAt,value
2023-02-15T00:02:45.079Z,0.84
2023-02-15T00:05:33.615Z,0.87
2023-02-15T00:08:23.434Z,0.85
2023-02-15T00:11:14.600Z,0.86
2023-02-15T00:14:03.045Z,0.88
2023-02-15T00:16:53.192Z,0.90
2023-02-15T00:19:42.035Z,0.92
2023-02-15T00:22:30.630Z,0.94
2023-02-15T00:25:20.452Z,0.80
2023-02-15T00:28:08.964Z,0.86
2023-02-15T00:31:04.639Z,0.79
2023-02-15T00:33:53.222Z,0.86
2023-02-15T00:36:41.999Z,0.87
2023-02-15T00:39:30.526Z,0.89
2023-02-15T00:42:20.577Z,0.90
2023-02-15T00:45:10.208Z,0.90
2023-02-15T00:47:58.739Z,0.84
2023-02-15T00:50:47.331Z,0.98
2023-02-15T00:53:35.867Z,0.97
2023-02-15T00:56:24.388Z,0.99
2023-02-15T00:59:14.258Z,1.02
2023-02-15T01:02:03.052Z,1.05
2023-02-15T01:04:51.538Z,1.06
2023-02-15T01:07:40.178Z,1.10
2023-02-15T01:10:29.201Z,1.04
2023-02-15T01:13:18.362Z,1.06
2023-02-15T01:16:08.460Z,1.05
2023-02-15T01:18:57.284Z,0.65
2023-02-15T01:21:45.999Z,1.02
2023-02-15T01:24:34.462Z,1.11
2023-02-15T01:27:22.983Z,1.14
2023-02-15T01:30:12.621Z,1.16
2023-02-15T01:33:02.770Z,1.15
2023-02-15T01:35:51.218Z,1.16
2023-02-15T01:38:40.739Z,1.11
2023-02-15T01:41:29.195Z,1.09
2023-02-15T01:44:49.270Z,1.12
2023-02-15T01:47:40.809Z,1.08
2023-02-15T01:50:34.762Z,1.09
2023-02-15T01:53:26.807Z,1.11
2023-02-15T01:56:17.594Z,0.94
2023-02-15T01:59:09.005Z,0.97
2023-02-15T02:01:59.835Z,0.96
2023-02-15T02:04:50.798Z,0.90
2023-02-15T02:07:43.334Z,0.78
2023-02-15T02:10:31.841Z,0.85
2023-02-15T02:13:20.326Z,0.69
2023-02-15T02:16:12.999Z,0.51
2023-02-15T02:19:16.375Z,0.79
2023-02-15T02:22:21.029Z,0.69
2023-02-15T02:25:32.678Z,0.68
2023-02-15T02:28:49.473Z,0.72
2023-02-15T02:31:46.889Z,0.67
2023-02-15T02:34:40.193Z,0.64
2023-02-15T02:37:35.034Z,0.30
2023-02-15T02:40:29.793Z,0.71
2023-02-15T02:43:22.559Z,0.60
2023-02-15T02:46:16.593Z,0.66
2023-02-15T02:49:05.160Z,0.51
2023-02-15T02:52:01.529Z,0.86
2023-02-15T02:54:49.995Z,0.74
2023-02-15T02:57:39.553Z,0.88
2023-02-15T03:00:31.587Z,0.70
2023-02-15T03:03:23.840Z,0.62
2023-02-15T03:06:14.849Z,0.71
2023-02-15T03:09:15.163Z,0.64
2023-02-15T03:12:05.135Z,0.59
2023-02-15T03:14:54.896Z,0.61
2023-02-15T03:17:45.376Z,0.59
2023-02-15T03:20:36.149Z,0.16
2023-02-15T03:23:27.045Z,0.31
2023-02-15T03:26:16.868Z,0.55
2023-02-15T03:29:06.964Z,0.57
2023-02-15T03:31:57.545Z,0.55
2023-02-15T03:34:46.264Z,0.38
2023-02-15T03:37:38.450Z,0.46
2023-02-15T03:40:48.506Z,0.48
2023-02-15T03:43:43.995Z,0.76
2023-02-15T03:46:34.963Z,0.82
2023-02-15T03:49:26.319Z,0.89
2023-02-15T03:52:16.156Z,0.77
2023-02-15T03:55:04.695Z,0.79
2023-02-15T03:58:10.780Z,0.75
2023-02-15T04:01:20.197Z,0.67
2023-02-15T04:04:12.081Z,0.71
2023-02-15T04:07:00.712Z,0.66
2023-02-15T04:10:06.779Z,0.56
2023-02-15T04:12:55.197Z,0.50
2023-02-15T04:16:01.481Z,0.51
2023-02-15T04:19:08.861Z,0.50
2023-02-15T04:22:14.645Z,0.44
2023-02-15T04:25:12.493Z,0.52
2023-02-15T04:28:01.057Z,0.58
2023-02-15T04:30:49.567Z,0.58
2023-02-15T04:33:38.061Z,0.64
2023-02-15T04:36:28.240Z,0.64
2023-02-15T04:39:17.636Z,0.63
2023-02-15T04:42:06.265Z,0.65
2023-02-15T04:44:54.952Z,0.49
2023-02-15T04:47:44.589Z,0.50
2023-02-15T04:50:33.071Z,0.52
2023-02-15T04:53:22.903Z,0.54
2023-02-15T04:56:11.349Z,0.59
2023-02-15T04:58:59.970Z,0.53
2023-02-15T05:01:48.466Z,0.59
2023-02-15T05:04:36.974Z,0.50
2023-02-15T05:07:25.476Z,0.64
2023-02-15T05:10:15.278Z,0.57
2023-02-15T05:13:03.856Z,0.59
2023-02-15T05:15:54.024Z,0.56
2023-02-15T05:18:42.545Z,0.49
2023-02-15T05:21:31.025Z,0.58
2023-02-15T05:24:37.250Z,0.57
2023-02-15T05:27:44.461Z,0.60
2023-02-15T05:30:33.070Z,0.56
2023-02-15T05:33:22.065Z,0.41
2023-02-15T05:36:11.038Z,0.47
2023-02-15T05:38:59.508Z,0.42
2023-02-15T05:41:47.995Z,0.42
2023-02-15T05:44:37.917Z,0.42
2023-02-15T05:47:26.384Z,0.42
2023-02-15T05:50:14.866Z,0.33
2023-02-15T06:05:15.043Z,0.65
2023-02-15T06:08:05.892Z,0.60
2023-02-15T06:10:54.613Z,0.54
2023-02-15T06:13:43.130Z,0.50
2023-02-15T06:16:32.148Z,0.51
2023-02-15T06:19:21.912Z,0.54
2023-02-15T06:22:11.802Z,0.47
2023-02-15T06:25:00.259Z,0.46
2023-02-15T06:27:48.865Z,0.44
2023-02-15T06:30:37.370Z,0.41
2023-02-15T06:33:25.929Z,0.34
2023-02-15T06:36:14.536Z,0.29
2023-02-15T06:39:04.989Z,0.28
2023-02-15T06:41:53.540Z,0.23
2023-02-15T06:44:42.012Z,0.25
2023-02-15T06:47:30.542Z,0.10
2023-02-15T06:50:19.117Z,0.17
2023-02-15T06:53:07.744Z,0.18
2023-02-15T06:56:07.221Z,0.30
2023-02-15T06:58:55.732Z,0.39
2023-02-15T07:01:44.592Z,0.18
2023-02-15T07:04:33.250Z,0.26
2023-02-15T07:07:21.744Z,0.29
2023-02-15T07:10:10.780Z,0.26
2023-02-15T07:13:00.594Z,0.28
2023-02-15T07:15:50.363Z,0.30
2023-02-15T07:18:38.980Z,0.38
2023-02-15T07:21:27.591Z,0.41
2023-02-15T07:24:16.199Z,0.44
2023-02-15T07:27:04.838Z,0.48
2023-02-15T07:29:54.757Z,0.46
2023-02-15T07:32:57.248Z,0.35
2023-02-15T07:35:49.609Z,0.30
2023-02-15T07:38:39.426Z,0.47
2023-02-15T07:41:27.889Z,0.48
2023-02-15T07:44:17.022Z,0.49
2023-02-15T07:47:06.916Z,0.54
2023-02-15T07:49:55.356Z,0.47
2023-02-15T07:52:43.889Z,0.57
2023-02-15T07:55:32.435Z,0.52
2023-02-15T07:58:21.230Z,0.67
2023-02-15T08:01:09.775Z,0.59
2023-02-15T08:03:59.908Z,0.51
2023-02-15T08:06:48.431Z,0.62
2023-02-15T08:09:36.950Z,0.57
2023-02-15T08:12:25.470Z,0.36
2023-02-15T08:15:14.221Z,0.32
2023-02-15T08:18:03.026Z,0.31
2023-02-15T08:20:53.012Z,0.38
2023-02-15T08:23:41.506Z,0.50
2023-02-15T08:26:31.143Z,0.31
2023-02-15T08:29:22.265Z,0.28
2023-02-15T08:32:12.921Z,0.37
2023-02-15T08:35:01.462Z,0.43
2023-02-15T08:37:51.332Z,0.48
2023-02-15T08:40:40.017Z,0.44
2023-02-15T08:43:28.663Z,0.43
2023-02-15T08:46:18.095Z,0.42
2023-02-15T08:49:07.430Z,0.64
2023-02-15T08:51:55.961Z,0.55
2023-02-15T08:54:45.897Z,0.51
2023-02-15T08:57:34.389Z,0.59
2023-02-15T09:00:24.189Z,0.66
2023-02-15T09:03:12.687Z,0.73
2023-02-15T09:06:02.456Z,0.62
2023-02-15T09:08:51.212Z,0.84
2023-02-15T09:11:42.638Z,0.75
2023-02-15T09:14:31.152Z,0.85
2023-02-15T09:17:19.652Z,0.77
2023-02-15T09:20:09.335Z,0.65
2023-02-15T09:22:59.906Z,0.74
2023-02-15T09:25:48.679Z,0.68
2023-02-15T09:28:38.757Z,0.79
2023-02-15T09:31:29.481Z,0.87
2023-02-15T09:34:19.653Z,0.80
2023-02-15T09:37:08.385Z,0.69
2023-02-15T09:39:56.993Z,0.78
2023-02-15T09:43:11.141Z,0.81
2023-02-15T09:46:10.067Z,0.79
2023-02-15T09:49:00.527Z,0.78
2023-02-15T09:52:22.242Z,0.79
2023-02-15T09:55:21.859Z,0.82
2023-02-15T09:58:16.557Z,0.91
2023-02-15T10:01:18.012Z,0.81
2023-02-15T10:04:19.873Z,1.00
2023-02-15T10:07:20.773Z,1.05
2023-02-15T10:10:18.900Z,1.25
2023-02-15T10:13:20.042Z,1.32
2023-02-15T10:16:18.211Z,1.40
2023-02-15T10:19:11.233Z,1.38
2023-02-15T10:22:09.030Z,1.32
2023-02-15T10:25:12.871Z,1.30
2023-02-15T10:28:07.404Z,1.29
2023-02-15T10:30:59.651Z,1.37
2023-02-15T10:33:50.706Z,1.35
2023-02-15T10:36:51.117Z,1.41
2023-02-15T10:39:48.067Z,1.52
2023-02-15T10:42:44.824Z,1.53
2023-02-15T10:45:37.062Z,1.58
2023-02-15T10:48:35.920Z,1.26
2023-02-15T10:51:32.791Z,1.57
2023-02-15T10:54:29.481Z,1.63
2023-02-15T10:57:23.181Z,1.70
2023-02-15T11:00:15.618Z,1.70
2023-02-15T11:03:17.196Z,1.76
2023-02-15T11:06:08.148Z,1.70
2023-02-15T11:09:02.240Z,1.75
2023-02-15T11:11:52.665Z,1.26
2023-02-15T11:14:45.916Z,1.68
2023-02-15T11:17:38.046Z,1.82
2023-02-15T11:20:30.686Z,1.73
2023-02-15T11:23:19.462Z,1.88
2023-02-15T11:26:15.179Z,1.94
2023-02-15T11:29:09.571Z,2.07
2023-02-15T11:32:02.227Z,2.15
2023-02-15T11:34:53.783Z,2.16
2023-02-15T11:37:47.024Z,2.11
2023-02-15T11:40:37.849Z,2.09
2023-02-15T11:43:31.072Z,2.10
2023-02-15T11:46:20.674Z,2.12
2023-02-15T11:49:22.927Z,2.28
2023-02-15T11:52:14.743Z,2.18
2023-02-15T11:55:03.738Z,2.10
2023-02-15T11:57:56.708Z,2.06
2023-02-15T12:00:48.348Z,2.06
2023-02-15T12:03:46.417Z,2.27
2023-02-15T12:06:36.575Z,2.24
2023-02-15T12:09:30.989Z,2.16
2023-02-15T12:12:25.005Z,2.12
2023-02-15T12:15:14.927Z,2.06
2023-02-15T12:18:05.115Z,1.95
2023-02-15T12:20:53.648Z,2.02
2023-02-15T12:23:45.727Z,2.26
2023-02-15T12:26:36.844Z,2.32
2023-02-15T12:29:28.981Z,2.18
2023-02-15T12:32:20.322Z,2.58
2023-02-15T12:35:15.730Z,2.65
2023-02-15T12:38:07.060Z,2.50
2023-02-15T12:41:03.545Z,2.69
2023-02-15T12:44:06.838Z,2.73
2023-02-15T12:47:00.557Z,2.77
2023-02-15T12:50:17.802Z,2.93
2023-02-15T12:53:09.738Z,2.87
2023-02-15T12:55:59.687Z,2.85
2023-02-15T12:58:48.176Z,3.09
2023-02-15T13:01:37.106Z,3.06
2023-02-15T13:04:28.036Z,3.18
2023-02-15T13:07:18.002Z,3.25
2023-02-15T13:10:22.707Z,2.72
2023-02-15T13:13:12.624Z,2.65
2023-02-15T13:16:05.094Z,3.06
2023-02-15T13:18:54.400Z,3.07
2023-02-15T13:21:45.954Z,3.15
2023-02-15T13:24:39.277Z,3.20
2023-02-15T13:27:37.284Z,3.42
2023-02-15T13:30:29.927Z,3.20
2023-02-15T13:33:27.122Z,3.33
2023-02-15T13:36:21.246Z,3.37
2023-02-15T13:39:17.697Z,3.44
2023-02-15T13:42:21.939Z,3.68
2023-02-15T13:45:24.357Z,3.89
2023-02-15T13:48:18.085Z,4.03
2023-02-15T13:51:11.707Z,4.08
2023-02-15T13:54:10.684Z,4.07
2023-02-15T13:57:11.478Z,4.03
2023-02-15T14:00:07.457Z,3.93
2023-02-15T14:03:17.341Z,4.12
2023-02-15T14:06:16.812Z,4.24
2023-02-15T14:09:14.005Z,4.36
2023-02-15T14:12:17.468Z,4.48
2023-02-15T14:15:13.762Z,4.49
2023-02-15T14:18:10.117Z,4.40
2023-02-15T14:21:06.785Z,4.55
2023-02-15T14:24:09.089Z,4.53
2023-02-15T14:27:05.067Z,4.57
2023-02-15T14:29:56.927Z,4.61
2023-02-15T14:32:48.415Z,4.71
2023-02-15T14:35:38.049Z,4.64
2023-02-15T14:38:51.830Z,4.71
2023-02-15T14:41:44.740Z,4.55
2023-02-15T14:44:38.706Z,4.54
2023-02-15T14:47:32.926Z,4.61
2023-02-15T14:50:45.199Z,4.69
2023-02-15T14:53:39.455Z,4.74
2023-02-15T14:56:28.640Z,4.82
2023-02-15T14:59:20.206Z,4.73
2023-02-15T15:02:15.832Z,4.72
2023-02-15T15:05:11.262Z,4.75
2023-02-15T15:08:00.950Z,4.80
2023-02-15T15:10:49.509Z,4.82
2023-02-15T15:13:57.556Z,4.82
2023-02-15T15:16:53.308Z,4.83
2023-02-15T15:20:15.049Z,4.89
2023-02-15T15:23:52.250Z,4.94
2023-02-15T15:26:49.969Z,4.99
2023-02-15T15:29:41.678Z,5.06
2023-02-15T15:32:32.634Z,5.06
2023-02-15T15:35:26.587Z,5.02
2023-02-15T15:38:29.328Z,4.52
2023-02-15T15:41:20.118Z,4.97
2023-02-15T15:44:40.012Z,5.07
2023-02-15T15:47:41.232Z,4.97
2023-02-15T15:50:31.467Z,5.07
2023-02-15T15:53:23.033Z,4.62
2023-02-15T15:56:16.266Z,5.08
2023-02-15T15:59:07.364Z,5.05
2023-02-15T16:01:56.254Z,5.12
2023-02-15T16:04:45.608Z,5.07
2023-02-15T16:07:35.481Z,5.02
2023-02-15T16:10:25.811Z,4.99
2023-02-15T16:13:15.751Z,4.99
2023-02-15T16:16:04.830Z,4.94
2023-02-15T16:18:53.958Z,4.86
2023-02-15T16:21:42.452Z,4.85
2023-02-15T16:24:46.950Z,4.83
2023-02-15T16:27:37.684Z,4.78
2023-02-15T16:30:29.432Z,4.74
2023-02-15T16:33:21.124Z,4.66
2023-02-15T16:36:13.384Z,4.55
2023-02-15T16:39:11.251Z,4.43
2023-02-15T16:42:03.053Z,4.38
2023-02-15T16:44:54.076Z,4.26
2023-02-15T16:47:43.676Z,4.20
2023-02-15T16:50:34.441Z,4.16
2023-02-15T16:53:26.076Z,4.06
2023-02-15T16:56:14.668Z,3.92
2023-02-15T16:59:04.575Z,3.82
2023-02-15T17:01:53.337Z,3.76
2023-02-15T17:04:43.243Z,3.74
2023-02-15T17:07:32.558Z,3.56
2023-02-15T17:10:29.888Z,3.41
2023-02-15T17:13:19.254Z,3.40
2023-02-15T17:16:25.716Z,3.37
2023-02-15T17:19:18.276Z,3.30
2023-02-15T17:22:07.766Z,3.22
2023-02-15T17:25:00.591Z,3.15
2023-02-15T17:27:53.239Z,2.62
2023-02-15T17:30:41.858Z,3.01
2023-02-15T17:33:40.388Z,3.01
2023-02-15T17:36:31.867Z,2.90
2023-02-15T17:39:23.258Z,2.85
2023-02-15T17:42:11.906Z,2.74
2023-02-15T17:45:00.612Z,2.65
2023-02-15T17:47:50.447Z,2.58
2023-02-15T17:50:40.259Z,2.53
2023-02-15T17:53:29.284Z,2.47
2023-02-15T17:56:16.814Z,2.31
2023-02-15T17:59:07.529Z,2.31
2023-02-15T18:02:13.740Z,2.22
2023-02-15T18:05:19.852Z,2.14
2023-02-15T18:08:30.733Z,2.06
2023-02-15T18:11:36.931Z,2.01
2023-02-15T18:14:25.783Z,1.98
2023-02-15T18:17:15.366Z,1.89
2023-02-15T18:20:07.470Z,1.73
2023-02-15T18:22:56.326Z,1.81
2023-02-15T18:25:46.428Z,1.77
2023-02-15T18:28:34.891Z,1.66
2023-02-15T18:31:23.932Z,1.68
2023-02-15T18:34:22.862Z,1.63
2023-02-15T18:37:15.209Z,1.56
2023-02-15T18:40:04.758Z,1.53
2023-02-15T18:42:56.899Z,1.46
2023-02-15T18:45:45.383Z,1.43
2023-02-15T18:48:33.866Z,1.37
2023-02-15T18:51:23.699Z,1.24
2023-02-15T18:54:18.209Z,1.24
2023-02-15T18:57:06.836Z,1.23
2023-02-15T18:59:56.906Z,1.20
2023-02-15T19:02:45.852Z,1.17
2023-02-15T19:05:35.414Z,1.19
2023-02-15T19:08:24.699Z,1.22
2023-02-15T19:11:16.458Z,1.20
2023-02-15T19:14:04.907Z,1.13
2023-02-15T19:16:55.801Z,1.09
2023-02-15T19:19:44.371Z,0.99
2023-02-15T19:22:34.087Z,0.97
2023-02-15T19:25:24.688Z,0.68
2023-02-15T19:28:17.822Z,0.88
2023-02-15T19:31:06.398Z,0.77
2023-02-15T19:33:56.304Z,0.77
2023-02-15T19:36:46.117Z,0.78
2023-02-15T19:39:39.096Z,0.74
2023-02-15T19:42:27.783Z,0.73
2023-02-15T19:45:17.138Z,0.74
2023-02-15T19:48:07.502Z,-0.04
2023-02-15T19:50:57.895Z,0.74
2023-02-15T19:53:47.412Z,0.69
2023-02-15T19:56:35.929Z,0.60
2023-02-15T19:59:25.757Z,0.57
2023-02-15T20:02:14.846Z,0.52
2023-02-15T20:05:04.652Z,0.50
2023-02-15T20:07:54.878Z,0.46
2023-02-15T20:10:43.968Z,0.46
2023-02-15T20:13:32.491Z,0.44
2023-02-15T20:16:21.175Z,0.44
2023-02-15T20:19:10.070Z,0.46
2023-02-15T20:21:59.033Z,0.40
2023-02-15T20:24:48.927Z,0.47
2023-02-15T20:27:43.868Z,0.46
2023-02-15T20:30:33.583Z,0.11
2023-02-15T20:33:23.615Z,0.41
2023-02-15T20:36:14.486Z,0.35
2023-02-15T20:39:07.107Z,0.32
2023-02-15T20:41:57.001Z,0.29
2023-02-15T20:44:45.453Z,0.23
2023-02-15T20:47:33.943Z,0.33
2023-02-15T20:50:23.756Z,0.40
2023-02-15T20:53:12.330Z,0.38
2023-02-15T20:56:00.954Z,0.39
2023-02-15T20:58:51.653Z,-0.39
2023-02-15T21:01:40.284Z,0.45
2023-02-15T21:04:31.625Z,0.47
2023-02-15T21:07:21.683Z,0.48
2023-02-15T21:10:15.681Z,0.55
2023-02-15T21:13:04.514Z,0.57
2023-02-15T21:15:55.957Z,0.63
2023-02-15T21:18:44.586Z,0.67
2023-02-15T21:21:33.098Z,0.84
2023-02-15T21:24:23.893Z,0.89
2023-02-15T21:27:13.880Z,0.97
2023-02-15T21:30:02.498Z,1.02
2023-02-15T21:32:52.869Z,0.91
2023-02-15T21:35:41.424Z,1.13
2023-02-15T21:38:31.062Z,1.11
2023-02-15T21:41:38.333Z,1.05
2023-02-15T21:44:44.550Z,1.04
2023-02-15T21:47:50.694Z,1.05
2023-02-15T21:50:57.264Z,1.08
2023-02-15T21:53:46.972Z,1.06
2023-02-15T21:56:35.550Z,1.23
2023-02-15T21:59:24.045Z,1.38
2023-02-15T22:02:26.678Z,1.32
2023-02-15T22:05:17.676Z,1.29
2023-02-15T22:08:12.341Z,1.14
2023-02-15T22:11:01.120Z,1.06
2023-02-15T22:13:51.643Z,0.91
2023-02-15T22:16:40.251Z,0.92
2023-02-15T22:19:29.085Z,0.68
2023-02-15T22:22:18.159Z,0.33
2023-02-15T22:25:08.391Z,0.70
2023-02-15T22:27:56.885Z,0.63
2023-02-15T22:30:46.454Z,0.48
2023-02-15T22:33:35.542Z,0.50
2023-02-15T22:36:25.888Z,0.48
2023-02-15T22:39:14.408Z,0.52
2023-02-15T22:42:04.488Z,0.59
2023-02-15T22:44:53.804Z,0.61
2023-02-15T22:47:42.275Z,0.55
2023-02-15T22:50:33.804Z,0.55
2023-02-15T22:53:22.553Z,0.58
2023-02-15T22:56:17.619Z,0.57
2023-02-15T22:59:09.508Z,0.56
2023-02-15T23:01:58.143Z,0.52
2023-02-15T23:04:46.691Z,0.53
2023-02-15T23:07:35.146Z,0.54
2023-02-15T23:10:25.595Z,0.18
2023-02-15T23:13:26.004Z,0.52
2023-02-15T23:16:17.474Z,0.48
2023-02-15T23:19:07.175Z,0.46
2023-02-15T23:21:55.871Z,0.43
2023-02-15T23:24:44.883Z,0.45
2023-02-15T23:27:59.317Z,0.47
2023-02-15T23:30:48.307Z,0.14
2023-02-15T23:33:38.126Z,-0.01
2023-02-15T23:36:28.889Z,0.02
2023-02-15T23:39:45.709Z,-0.05
2023-02-15T23:42:35.055Z,0.03
2023-02-15T23:45:24.434Z,-0.02
2023-02-15T23:48:32.893Z,-0.11
2023-02-15T23:51:24.053Z,-0.12
2023-02-15T23:54:12.762Z,-0.31
2023-02-15T23:57:02.377Z,-0.13
2023-02-15T23:59:50.798Z,-0.21
